createdAt,value
2016-11-06T14:18:54.132Z,428
2016-11-06T14:19:54.745Z,408
2016-11-06T14:20:55.353Z,384
2016-11-06T14:21:55.957Z,352
2016-11-06T14:22:56.560Z,336
2016-11-06T14:23:57.161Z,332
2016-11-06T14:24:57.774Z,324
2016-11-06T14:25:58.397Z,312
2016-11-06T14:26:59.009Z,320
2016-11-06T14:27:59.613Z,340
2016-11-06T14:29:00.213Z,348
2016-11-06T14:30:00.806Z,316
2016-11-06T14:31:01.403Z,304
2016-11-06T14:32:02.001Z,300
2016-11-06T14:33:02.604Z,304
2016-11-06T14:34:03.206Z,308
2016-11-06T14:35:03.810Z,312
2016-11-06T14:36:04.416Z,320
2016-11-06T14:37:05.024Z,324
2016-11-06T14:38:05.632Z,332
2016-11-06T14:39:06.263Z,332
2016-11-06T14:40:06.872Z,332
2016-11-06T14:41:07.469Z,328
2016-11-06T14:42:08.094Z,328
2016-11-06T14:43:08.709Z,332
2016-11-06T14:44:09.389Z,336
2016-11-06T14:45:09.992Z,356
2016-11-06T14:46:10.592Z,368
2016-11-06T14:47:11.197Z,360
2016-11-06T14:48:11.798Z,360
2016-11-06T14:49:12.397Z,360
2016-11-06T14:50:12.991Z,372
2016-11-06T14:51:13.596Z,396
2016-11-06T14:52:14.217Z,432
2016-11-06T14:53:14.812Z,472
2016-11-06T14:54:15.429Z,496
2016-11-06T14:55:16.038Z,496
2016-11-06T14:56:16.635Z,472
2016-11-06T14:57:17.233Z,432
2016-11-06T14:58:17.837Z,396
2016-11-06T14:59:18.448Z,352
2016-11-06T15:00:19.048Z,316
2016-11-06T15:01:19.640Z,280
2016-11-06T15:02:20.238Z,252
2016-11-06T15:03:20.851Z,228
2016-11-06T15:04:21.469Z,212
2016-11-06T15:05:22.095Z,200
2016-11-06T15:06:22.714Z,196
2016-11-06T15:07:23.330Z,188
2016-11-06T15:08:23.932Z,180
2016-11-06T15:09:24.641Z,168
2016-11-06T15:10:25.241Z,160
2016-11-06T15:11:25.846Z,152
2016-11-06T15:12:26.460Z,164
2016-11-06T15:13:27.063Z,172
2016-11-06T15:14:27.663Z,176
2016-11-06T15:15:28.266Z,172
2016-11-06T15:16:28.871Z,172
2016-11-06T15:17:29.471Z,172
2016-11-06T15:18:30.080Z,184
2016-11-06T15:19:30.684Z,192
2016-11-06T15:20:31.281Z,184
2016-11-06T15:21:31.882Z,176
2016-11-06T15:22:32.532Z,168
2016-11-06T15:23:33.114Z,160
2016-11-06T15:24:33.716Z,148
2016-11-06T15:25:34.308Z,136
2016-11-06T15:26:34.922Z,124
2016-11-06T15:27:35.519Z,112
2016-11-06T15:28:36.134Z,100
2016-11-06T15:29:36.736Z,88
2016-11-06T15:30:37.431Z,80
2016-11-06T15:31:38.026Z,64
2016-11-06T15:32:38.622Z,56
2016-11-06T15:33:39.231Z,48
2016-11-06T15:34:39.833Z,40
2016-11-06T15:35:40.433Z,36
2016-11-06T15:36:41.031Z,36
2016-11-06T15:37:41.622Z,32
2016-11-06T15:38:42.217Z,28
2016-11-06T15:39:42.819Z,28
2016-11-06T15:40:43.424Z,28
2016-11-06T15:41:44.028Z,20
2016-11-06T15:42:44.647Z,20
2016-11-06T15:43:45.242Z,20
2016-11-06T15:44:45.843Z,16
2016-11-06T15:45:46.450Z,16
2016-11-06T15:46:47.073Z,16
2016-11-06T15:47:47.663Z,16
2016-11-06T15:48:48.266Z,12
2016-11-06T15:49:48.872Z,12
2016-11-06T15:50:49.529Z,12
2016-11-06T15:51:50.135Z,8
2016-11-06T15:52:50.727Z,8
2016-11-06T15:53:51.334Z,8
2016-11-06T15:54:51.938Z,8
2016-11-06T15:55:52.545Z,4
2016-11-06T15:56:53.139Z,8
2016-11-06T15:57:53.737Z,4
2016-11-06T15:58:54.335Z,4
2016-11-06T15:59:54.936Z,4
2016-11-06T16:00:55.534Z,4
2016-11-06T16:01:56.195Z,0
2016-11-06T16:02:56.788Z,0
2016-11-06T16:03:57.411Z,4
2016-11-06T16:04:58.066Z,4
2016-11-06T16:05:58.673Z,4
2016-11-06T16:06:59.263Z,0
2016-11-06T16:07:59.860Z,0
2016-11-06T16:09:00.462Z,0
2016-11-06T16:10:01.067Z,0
2016-11-06T16:11:01.675Z,0
2016-11-06T16:12:02.298Z,0
2016-11-06T16:13:02.903Z,0
2016-11-06T16:14:03.511Z,0
2016-11-06T16:15:04.125Z,0
2016-11-06T16:16:04.727Z,0
2016-11-06T16:17:05.329Z,0
2016-11-06T16:18:05.930Z,0
2016-11-06T16:19:06.528Z,0
2016-11-06T16:20:07.130Z,0
2016-11-06T16:21:07.733Z,0
2016-11-06T16:22:08.356Z,0
2016-11-06T16:23:08.951Z,0
2016-11-06T16:24:09.544Z,0
2016-11-06T16:25:10.141Z,0
2016-11-06T16:26:10.737Z,0
2016-11-06T16:27:11.335Z,0
2016-11-06T16:28:11.982Z,0
2016-11-06T16:29:12.605Z,0
2016-11-06T16:30:13.207Z,0
2016-11-06T16:31:13.803Z,0
2016-11-06T16:32:14.528Z,0
2016-11-06T16:33:15.131Z,0
2016-11-06T16:34:15.763Z,0
2016-11-06T16:35:16.369Z,0
2016-11-06T16:36:16.984Z,0
2016-11-06T16:37:17.613Z,0
2016-11-06T16:38:18.277Z,0
2016-11-06T16:39:18.882Z,0
2016-11-06T16:40:19.495Z,0
2016-11-06T16:41:20.086Z,0
2016-11-06T16:42:20.705Z,0
2016-11-06T16:43:21.317Z,0
2016-11-06T16:44:21.942Z,0
2016-11-06T16:45:22.544Z,0
2016-11-06T16:46:23.198Z,0
2016-11-06T16:47:23.818Z,0
2016-11-06T16:48:24.421Z,0
2016-11-06T16:49:25.019Z,0
2016-11-06T16:50:25.635Z,0
2016-11-06T16:51:26.244Z,0
2016-11-06T16:52:26.839Z,0
2016-11-06T16:53:27.443Z,0
2016-11-06T16:54:28.040Z,0
2016-11-06T16:55:28.639Z,0
2016-11-06T16:56:29.237Z,0
2016-11-06T16:57:29.830Z,0
2016-11-06T16:58:30.446Z,0
2016-11-06T16:59:31.055Z,0
2016-11-06T17:00:31.647Z,0
2016-11-06T17:01:32.260Z,0
2016-11-06T17:02:32.853Z,0
2016-11-06T17:03:33.472Z,0
2016-11-06T17:04:34.077Z,0
2016-11-06T17:05:34.687Z,0
2016-11-06T17:06:35.321Z,0
2016-11-06T17:07:35.922Z,0
2016-11-06T17:08:36.545Z,0
2016-11-06T17:09:37.151Z,0
2016-11-06T17:10:37.767Z,0
2016-11-06T17:11:38.370Z,0
2016-11-06T17:12:38.976Z,0
2016-11-06T17:13:39.606Z,0
2016-11-06T17:14:40.210Z,0
2016-11-06T17:15:40.817Z,0
2016-11-06T17:16:41.460Z,0
2016-11-06T17:17:42.085Z,0
2016-11-06T17:18:42.689Z,0
2016-11-06T17:19:43.300Z,0
2016-11-06T17:20:43.913Z,0
2016-11-06T17:21:44.553Z,0
2016-11-06T17:22:45.214Z,0
2016-11-06T17:23:45.820Z,0
2016-11-06T17:24:46.428Z,0
2016-11-06T17:25:47.063Z,0
2016-11-06T17:26:47.679Z,0
2016-11-06T17:27:48.296Z,0
2016-11-06T17:28:48.916Z,0
2016-11-06T17:29:49.542Z,0
2016-11-06T17:30:50.171Z,0
2016-11-06T17:31:50.804Z,0
2016-11-06T17:32:52.437Z,0
2016-11-06T17:33:53.051Z,0
2016-11-06T17:34:53.670Z,0
2016-11-06T17:35:54.313Z,0
2016-11-06T17:36:54.916Z,0
2016-11-06T17:37:55.512Z,0
2016-11-06T17:38:56.131Z,0
2016-11-06T17:39:56.755Z,0
2016-11-06T17:40:57.369Z,0
2016-11-06T17:41:57.971Z,0
2016-11-06T17:42:58.659Z,0
2016-11-06T17:43:59.323Z,0
2016-11-06T17:44:59.944Z,0
2016-11-06T17:46:00.546Z,0
2016-11-06T17:47:01.140Z,0
2016-11-06T17:48:01.751Z,0
2016-11-06T17:49:02.360Z,0
2016-11-06T17:50:02.961Z,0
2016-11-06T17:51:03.563Z,0
2016-11-06T17:52:04.175Z,0
2016-11-06T17:53:04.778Z,0
2016-11-06T17:54:05.396Z,0
2016-11-06T17:55:06.017Z,0
2016-11-06T17:56:06.636Z,0
2016-11-06T17:57:07.252Z,0
2016-11-06T17:58:07.860Z,0
2016-11-06T17:59:08.463Z,0
2016-11-06T18:00:09.118Z,0
2016-11-06T18:01:09.754Z,0
2016-11-06T18:02:10.361Z,0
2016-11-06T18:03:11.002Z,0
2016-11-06T18:04:11.632Z,0
2016-11-06T18:05:12.261Z,0
2016-11-06T18:06:12.880Z,0
2016-11-06T18:07:13.517Z,0
2016-11-06T18:08:14.149Z,0
2016-11-06T18:09:14.779Z,0
2016-11-06T18:10:15.443Z,0
2016-11-06T18:11:16.041Z,0
2016-11-06T18:12:16.653Z,0
2016-11-06T18:13:17.275Z,0
2016-11-06T18:14:17.896Z,0
2016-11-06T18:15:18.501Z,0
2016-11-06T18:16:19.117Z,0
2016-11-06T18:17:19.715Z,0
2016-11-06T18:18:20.330Z,0
2016-11-06T18:19:20.946Z,0
2016-11-06T18:20:21.571Z,0
2016-11-06T18:21:22.221Z,0
2016-11-06T18:22:22.828Z,0
2016-11-06T18:23:23.440Z,0
2016-11-06T18:24:24.047Z,0
2016-11-06T18:25:24.652Z,0
2016-11-06T18:26:25.265Z,0
2016-11-06T18:27:25.919Z,0
2016-11-06T18:28:26.534Z,0
2016-11-06T18:29:27.216Z,0
2016-11-06T18:30:27.802Z,0
2016-11-06T18:31:28.429Z,0
2016-11-06T18:32:29.039Z,0
2016-11-06T18:33:29.646Z,0
2016-11-06T18:34:30.302Z,0
2016-11-06T18:35:30.927Z,0
2016-11-06T18:36:31.637Z,0
2016-11-06T18:37:32.282Z,0
2016-11-06T18:38:32.904Z,0
2016-11-06T18:39:33.511Z,0
2016-11-06T18:40:34.127Z,0
2016-11-06T18:41:34.766Z,0
2016-11-06T18:42:35.374Z,0
2016-11-06T18:43:35.996Z,0
2016-11-06T18:44:36.616Z,0
2016-11-06T18:45:37.240Z,0
2016-11-06T18:46:37.940Z,0
2016-11-06T18:47:38.580Z,0
2016-11-06T18:48:39.182Z,0
2016-11-06T18:49:39.804Z,0
2016-11-06T18:50:40.438Z,0
2016-11-06T18:51:41.053Z,0
2016-11-06T18:52:41.675Z,0
2016-11-06T18:53:42.269Z,0
2016-11-06T18:54:42.937Z,0
2016-11-06T18:55:43.547Z,0
2016-11-06T18:56:44.158Z,0
2016-11-06T18:57:44.835Z,0
2016-11-06T18:58:45.491Z,0
2016-11-06T18:59:46.146Z,0
2016-11-06T19:00:46.767Z,0
2016-11-06T19:01:47.399Z,0
2016-11-06T19:02:48.173Z,0
2016-11-06T19:03:48.815Z,0
2016-11-06T19:04:49.436Z,0
2016-11-06T19:05:50.054Z,0
2016-11-06T19:06:50.700Z,0
2016-11-06T19:07:51.346Z,0
2016-11-06T19:08:51.997Z,0
2016-11-06T19:09:52.634Z,0
2016-11-06T19:10:53.235Z,0
2016-11-06T19:11:53.861Z,0
2016-11-06T19:12:54.466Z,0
2016-11-06T19:13:55.081Z,0
2016-11-06T19:14:55.685Z,0
2016-11-06T19:15:56.348Z,0
2016-11-06T19:16:57.009Z,0
2016-11-06T19:17:57.662Z,0
2016-11-06T19:18:58.380Z,0
2016-11-06T19:19:59.006Z,0
2016-11-06T19:20:59.608Z,0
2016-11-06T19:22:00.235Z,0
2016-11-06T19:23:00.842Z,0
2016-11-06T19:24:01.453Z,0
2016-11-06T19:25:02.138Z,0
2016-11-06T19:26:02.846Z,0
2016-11-06T19:27:03.541Z,0
2016-11-06T19:28:04.215Z,0
2016-11-06T19:29:04.848Z,0
2016-11-06T19:30:05.620Z,0
2016-11-06T19:31:06.246Z,0
2016-11-06T19:32:06.891Z,0
2016-11-06T19:33:07.519Z,0
2016-11-06T19:34:08.174Z,0
2016-11-06T19:35:08.884Z,0
2016-11-06T19:36:09.525Z,0
2016-11-06T19:37:10.141Z,0
2016-11-06T19:38:10.897Z,0
2016-11-06T19:39:11.552Z,0
2016-11-06T19:40:12.190Z,0
2016-11-06T19:41:12.801Z,0
2016-11-06T19:42:13.432Z,0
2016-11-06T19:43:14.140Z,0
2016-11-06T19:44:14.817Z,0
2016-11-06T19:45:15.524Z,0
2016-11-06T19:46:16.204Z,0
2016-11-06T19:47:16.862Z,0
2016-11-06T19:48:17.551Z,0
2016-11-06T19:49:18.231Z,0
2016-11-06T19:50:18.879Z,0
2016-11-06T19:51:19.554Z,0
2016-11-06T19:52:20.267Z,0
2016-11-06T19:53:20.928Z,0
2016-11-06T19:54:21.572Z,0
2016-11-06T19:55:22.245Z,0
2016-11-06T19:56:22.894Z,0
2016-11-06T19:57:23.554Z,0
2016-11-06T19:58:24.276Z,0
2016-11-06T19:59:25.151Z,0
2016-11-06T20:00:25.889Z,0
2016-11-06T20:01:26.585Z,0
2016-11-06T20:02:27.267Z,0
2016-11-06T20:03:27.884Z,0
2016-11-06T20:04:28.586Z,0
2016-11-06T20:05:29.328Z,0
2016-11-06T20:06:29.977Z,0
2016-11-06T20:07:30.634Z,0
2016-11-06T20:08:31.302Z,0
2016-11-06T20:09:31.981Z,0
2016-11-06T20:10:32.688Z,0
2016-11-06T20:11:33.391Z,0
2016-11-06T20:12:34.025Z,0
2016-11-06T20:13:34.714Z,0
2016-11-06T20:14:35.432Z,0
2016-11-06T20:15:36.082Z,0
2016-11-06T20:16:36.780Z,0
2016-11-06T20:17:37.481Z,0
2016-11-06T20:18:38.217Z,0
2016-11-06T20:19:38.913Z,0
2016-11-06T20:20:39.585Z,0
2016-11-06T20:21:40.227Z,0
2016-11-06T20:22:40.852Z,0
2016-11-06T20:23:41.520Z,0
2016-11-06T20:24:42.280Z,0
2016-11-06T20:25:42.863Z,0
2016-11-06T20:26:43.581Z,0
2016-11-06T20:27:44.353Z,0
2016-11-06T20:28:44.990Z,0
2016-11-06T20:29:45.653Z,0
2016-11-06T20:30:46.406Z,0
2016-11-06T20:31:47.073Z,0
2016-11-06T20:32:47.798Z,0
2016-11-06T20:33:48.480Z,0
2016-11-06T20:34:49.272Z,0
2016-11-06T20:35:49.957Z,0
2016-11-06T20:36:50.627Z,0
2016-11-06T20:37:51.310Z,0
2016-11-06T20:38:51.980Z,0
2016-11-06T20:39:52.621Z,0
2016-11-06T20:40:53.562Z,0
2016-11-06T20:41:54.498Z,0
2016-11-06T20:42:55.154Z,0
2016-11-06T20:43:55.859Z,0
2016-11-06T20:44:57.187Z,0
2016-11-06T20:45:58.023Z,0
2016-11-06T20:46:58.798Z,0
2016-11-06T20:47:59.818Z,0
2016-11-06T20:49:00.597Z,0
2016-11-06T20:50:01.343Z,0
2016-11-06T20:51:02.203Z,0
2016-11-06T20:52:03.102Z,0
2016-11-06T20:53:04.174Z,0
2016-11-06T20:54:04.907Z,0
2016-11-06T20:55:05.605Z,0
2016-11-06T20:56:06.380Z,0
2016-11-06T20:57:07.016Z,0
2016-11-06T20:58:07.903Z,0
2016-11-06T20:59:08.748Z,0
2016-11-06T21:00:09.349Z,0
2016-11-06T21:01:10.044Z,0
2016-11-06T21:02:10.699Z,0
2016-11-06T21:03:11.320Z,0
2016-11-06T21:04:12.166Z,0
2016-11-06T21:05:12.761Z,0
2016-11-06T21:06:13.634Z,0
2016-11-06T21:07:14.856Z,0
2016-11-06T21:08:15.485Z,0
2016-11-06T21:09:16.515Z,0
2016-11-06T21:10:17.262Z,0
2016-11-06T21:11:17.892Z,0
2016-11-06T21:12:18.518Z,0
2016-11-06T21:13:19.220Z,0
2016-11-06T21:14:19.879Z,0
2016-11-06T21:15:20.500Z,0
2016-11-06T21:16:21.117Z,0
2016-11-06T21:17:21.807Z,0
2016-11-06T21:18:22.993Z,0
2016-11-06T21:19:23.619Z,0
2016-11-06T21:20:24.243Z,0
2016-11-06T21:21:25.082Z,0
2016-11-06T21:22:25.666Z,0
2016-11-06T21:23:26.395Z,0
2016-11-06T21:24:27.531Z,0
2016-11-06T21:25:28.417Z,0
2016-11-06T21:26:29.086Z,0
2016-11-06T21:27:29.762Z,0
2016-11-06T21:28:30.397Z,0
2016-11-06T21:29:31.044Z,0
2016-11-06T21:30:31.687Z,0
2016-11-06T21:31:32.480Z,0
2016-11-06T21:32:33.145Z,0
2016-11-06T21:33:34.166Z,0
2016-11-06T21:34:35.129Z,0
2016-11-06T21:35:36.100Z,0
2016-11-06T21:36:36.766Z,0
2016-11-06T21:37:37.422Z,0
2016-11-06T21:38:38.061Z,0
2016-11-06T21:39:39.122Z,0
2016-11-06T21:40:40.003Z,0
2016-11-06T21:41:41.188Z,0
2016-11-06T21:42:41.872Z,0
2016-11-06T21:43:42.579Z,0
2016-11-06T21:44:43.365Z,0
2016-11-06T21:45:44.135Z,0
2016-11-06T21:46:44.813Z,0
2016-11-06T21:47:45.483Z,0
2016-11-06T21:48:46.489Z,0
2016-11-06T21:49:47.055Z,0
2016-11-06T21:50:47.663Z,0
2016-11-06T21:51:48.284Z,0
2016-11-06T21:52:48.916Z,0
2016-11-06T21:53:50.220Z,0
2016-11-06T21:54:51.090Z,0
2016-11-06T21:55:51.731Z,0
2016-11-06T21:56:52.670Z,0
2016-11-06T21:57:53.327Z,0
2016-11-06T21:58:53.952Z,0
2016-11-06T21:59:54.575Z,0
2016-11-06T22:00:55.228Z,0
2016-11-06T22:01:55.865Z,0
2016-11-06T22:02:56.487Z,0
2016-11-06T22:03:57.167Z,0
2016-11-06T22:04:57.868Z,0
2016-11-06T22:05:58.509Z,0
2016-11-06T22:06:59.140Z,0
2016-11-06T22:07:59.797Z,0
2016-11-06T22:09:00.407Z,0
2016-11-06T22:10:01.067Z,0
2016-11-06T22:11:01.733Z,0
2016-11-06T22:12:02.395Z,0
2016-11-06T22:13:03.056Z,0
2016-11-06T22:14:03.765Z,0
2016-11-06T22:15:04.405Z,0
2016-11-06T22:16:05.032Z,0
2016-11-06T22:17:05.745Z,0
2016-11-06T22:18:06.425Z,0
2016-11-06T22:19:07.101Z,0
2016-11-06T22:20:07.723Z,0
2016-11-06T22:21:08.353Z,0
2016-11-06T22:22:09.067Z,0
2016-11-06T22:23:09.687Z,0
2016-11-06T22:24:10.280Z,0
2016-11-06T22:25:10.919Z,0
2016-11-06T22:26:11.518Z,0
2016-11-06T22:27:12.117Z,0
2016-11-06T22:28:13.065Z,0
2016-11-06T22:29:13.801Z,0
2016-11-06T22:30:14.446Z,0
2016-11-06T22:31:15.994Z,0
2016-11-06T22:32:17.037Z,0
2016-11-06T22:33:17.690Z,0
2016-11-06T22:34:18.361Z,0
2016-11-06T22:35:18.974Z,0
2016-11-06T22:36:19.896Z,0
2016-11-06T22:37:20.537Z,0
2016-11-06T22:38:21.205Z,0
2016-11-06T22:39:21.845Z,0
2016-11-06T22:40:22.548Z,0
2016-11-06T22:41:23.462Z,0
2016-11-06T22:42:25.075Z,0
2016-11-06T22:43:25.746Z,0
2016-11-06T22:44:26.361Z,0
2016-11-06T22:45:27.009Z,0
2016-11-06T22:46:27.627Z,0
2016-11-06T22:47:28.248Z,0
2016-11-06T22:48:28.858Z,0
2016-11-06T22:49:29.484Z,0
2016-11-06T22:50:30.103Z,0
2016-11-06T22:51:30.737Z,0
2016-11-06T22:52:31.350Z,0
2016-11-06T22:53:31.954Z,0
2016-11-06T22:54:32.551Z,0
2016-11-06T22:55:33.155Z,0
2016-11-06T22:56:33.759Z,0
2016-11-06T22:57:34.358Z,0
2016-11-06T22:58:34.963Z,0
2016-11-06T22:59:35.578Z,0
2016-11-06T23:00:36.182Z,0
2016-11-06T23:01:36.794Z,0
2016-11-06T23:02:37.403Z,0
2016-11-06T23:03:38.026Z,0
2016-11-06T23:04:38.638Z,0
2016-11-06T23:05:39.243Z,0
2016-11-06T23:06:39.851Z,0
2016-11-06T23:07:40.444Z,0
2016-11-06T23:08:41.065Z,0
2016-11-06T23:09:41.679Z,0
2016-11-06T23:10:42.337Z,0
2016-11-06T23:11:42.954Z,0
2016-11-06T23:12:43.554Z,0
2016-11-06T23:13:44.155Z,0
2016-11-06T23:14:44.764Z,0
2016-11-06T23:15:45.360Z,0
2016-11-06T23:16:45.972Z,0
2016-11-06T23:17:46.698Z,0
2016-11-06T23:18:47.311Z,0
2016-11-06T23:19:47.935Z,0
2016-11-06T23:20:48.563Z,0
2016-11-06T23:21:49.160Z,0
2016-11-06T23:22:49.754Z,0
2016-11-06T23:23:50.361Z,0
2016-11-06T23:24:50.957Z,0
2016-11-06T23:25:51.555Z,0
2016-11-06T23:26:52.156Z,0
2016-11-06T23:27:52.759Z,0
2016-11-06T23:28:53.379Z,0
2016-11-06T23:29:53.988Z,0
2016-11-06T23:30:54.606Z,0
2016-11-06T23:31:55.236Z,0
2016-11-06T23:32:55.839Z,0
2016-11-06T23:33:56.441Z,0
2016-11-06T23:34:57.066Z,0
2016-11-06T23:35:57.677Z,0
2016-11-06T23:36:58.284Z,0
2016-11-06T23:37:58.912Z,0
2016-11-06T23:38:59.525Z,0
2016-11-06T23:40:00.128Z,0
2016-11-06T23:41:00.731Z,0
2016-11-06T23:42:01.387Z,0
2016-11-06T23:43:01.991Z,0
2016-11-06T23:44:02.592Z,0
2016-11-06T23:45:03.201Z,0
2016-11-06T23:46:03.811Z,0
2016-11-06T23:47:04.443Z,0
2016-11-06T23:48:05.116Z,0
2016-11-06T23:49:05.721Z,0
2016-11-06T23:50:06.325Z,0
2016-11-06T23:51:06.934Z,0
2016-11-06T23:52:07.549Z,0
2016-11-06T23:53:08.161Z,0
2016-11-06T23:54:08.765Z,0
2016-11-06T23:55:09.473Z,0
2016-11-06T23:56:10.088Z,0
2016-11-06T23:57:10.697Z,0
2016-11-06T23:58:11.299Z,0
2016-11-06T23:59:11.912Z,0
